createdAt,value
2022-07-28T00:02:00.936Z,11.03
2022-07-28T00:04:30.222Z,10.93
2022-07-28T00:06:58.092Z,11.02
2022-07-28T00:09:25.880Z,11.09
2022-07-28T00:11:54.597Z,11.02
2022-07-28T00:14:23.438Z,10.95
2022-07-28T00:16:51.743Z,10.82
2022-07-28T00:19:20.271Z,10.80
2022-07-28T00:21:49.404Z,10.53
2022-07-28T00:24:17.432Z,10.67
2022-07-28T00:26:46.794Z,10.63
2022-07-28T00:29:14.791Z,10.53
2022-07-28T00:31:43.642Z,10.52
2022-07-28T00:34:13.013Z,10.52
2022-07-28T00:36:41.103Z,10.36
2022-07-28T00:39:10.293Z,10.34
2022-07-28T00:41:38.107Z,10.26
2022-07-28T00:44:07.534Z,10.29
2022-07-28T00:46:35.838Z,10.24
2022-07-28T00:49:03.994Z,10.28
2022-07-28T00:51:32.234Z,10.25
2022-07-28T00:54:00.203Z,10.51
2022-07-28T00:56:29.497Z,10.53
2022-07-28T00:58:57.450Z,10.55
2022-07-28T01:01:25.479Z,10.47
2022-07-28T01:03:55.892Z,10.52
2022-07-28T01:06:44.136Z,10.46
2022-07-28T01:09:25.329Z,10.32
2022-07-28T01:12:00.012Z,10.30
2022-07-28T01:14:35.399Z,10.15
2022-07-28T01:17:15.198Z,9.90
2022-07-28T01:19:49.562Z,9.97
2022-07-28T01:22:22.276Z,9.89
2022-07-28T01:24:57.364Z,9.86
2022-07-28T01:27:46.392Z,9.87
2022-07-28T01:30:30.955Z,9.83
2022-07-28T01:33:03.526Z,9.97
2022-07-28T01:35:37.571Z,10.11
2022-07-28T01:38:08.950Z,10.09
2022-07-28T01:40:38.094Z,10.05
2022-07-28T01:43:08.902Z,10.05
2022-07-28T01:45:42.415Z,10.02
2022-07-28T01:48:12.340Z,10.10
2022-07-28T01:50:40.966Z,10.03
2022-07-28T01:53:11.381Z,9.84
2022-07-28T01:55:40.581Z,9.87
2022-07-28T01:58:08.904Z,9.93
2022-07-28T02:00:37.858Z,9.94
2022-07-28T02:03:10.696Z,9.68
2022-07-28T02:05:41.380Z,9.80
2022-07-28T02:08:10.695Z,9.73
2022-07-28T02:10:42.134Z,9.80
2022-07-28T02:13:11.226Z,9.79
2022-07-28T02:15:41.144Z,9.86
2022-07-28T02:18:11.927Z,9.87
2022-07-28T02:20:41.367Z,9.88
2022-07-28T02:23:10.610Z,9.91
2022-07-28T02:25:41.254Z,9.93
2022-07-28T02:28:12.148Z,9.98
2022-07-28T02:30:54.909Z,9.91
2022-07-28T02:33:58.896Z,9.93
2022-07-28T02:36:26.273Z,9.92
2022-07-28T02:38:57.181Z,9.84
2022-07-28T02:41:28.618Z,9.70
2022-07-28T02:44:00.675Z,9.63
2022-07-28T02:46:38.245Z,9.78
2022-07-28T02:49:13.423Z,9.78
2022-07-28T02:51:43.481Z,9.79
2022-07-28T02:54:13.937Z,9.71
2022-07-28T02:56:53.535Z,9.74
2022-07-28T02:59:23.089Z,9.82
2022-07-28T03:01:51.902Z,9.76
2022-07-28T03:04:42.102Z,9.69
2022-07-28T03:07:10.998Z,9.73
2022-07-28T03:09:40.717Z,9.64
2022-07-28T03:12:09.284Z,9.66
2022-07-28T03:14:37.500Z,9.69
2022-07-28T03:17:06.383Z,9.74
2022-07-28T03:19:35.904Z,9.64
2022-07-28T03:22:03.968Z,9.56
2022-07-28T03:24:36.441Z,9.64
2022-07-28T03:27:12.862Z,9.53
2022-07-28T03:29:43.785Z,9.49
2022-07-28T03:32:12.692Z,9.53
2022-07-28T03:34:42.171Z,9.60
2022-07-28T03:37:13.967Z,9.69
2022-07-28T03:39:47.005Z,9.85
2022-07-28T03:42:17.915Z,9.84
2022-07-28T03:44:47.716Z,9.69
2022-07-28T03:47:15.759Z,9.54
2022-07-28T03:49:47.924Z,9.71
2022-07-28T03:52:15.825Z,9.82
2022-07-28T03:54:43.809Z,10.07
2022-07-28T03:57:12.283Z,10.21
2022-07-28T03:59:40.072Z,10.24
2022-07-28T04:02:07.957Z,10.34
2022-07-28T04:04:35.920Z,10.29
2022-07-28T04:07:05.151Z,10.31
2022-07-28T04:09:32.881Z,10.48
2022-07-28T04:12:00.679Z,10.46
2022-07-28T04:14:28.459Z,10.52
2022-07-28T04:16:56.394Z,10.62
2022-07-28T04:19:24.285Z,10.79
2022-07-28T04:21:52.131Z,10.84
2022-07-28T04:24:21.280Z,10.97
2022-07-28T04:26:49.148Z,11.10
2022-07-28T04:29:23.300Z,11.28
2022-07-28T04:31:56.176Z,11.35
2022-07-28T04:34:25.025Z,11.43
2022-07-28T04:36:53.154Z,11.56
2022-07-28T04:39:22.432Z,11.69
2022-07-28T04:41:50.953Z,11.73
2022-07-28T04:44:18.864Z,11.86
2022-07-28T04:46:46.848Z,11.95
2022-07-28T04:49:14.910Z,12.04
2022-07-28T04:51:45.370Z,12.19
2022-07-28T04:54:13.683Z,12.30
2022-07-28T04:56:44.698Z,12.49
2022-07-28T04:59:12.968Z,12.53
2022-07-28T05:01:44.215Z,12.67
2022-07-28T05:04:12.509Z,12.91
2022-07-28T05:06:40.548Z,13.12
2022-07-28T05:09:08.736Z,13.36
2022-07-28T05:11:36.699Z,13.47
2022-07-28T05:14:06.308Z,13.58
2022-07-28T05:16:34.380Z,13.78
2022-07-28T05:19:02.490Z,13.92
2022-07-28T05:21:30.535Z,14.10
2022-07-28T05:23:58.391Z,14.24
2022-07-28T05:26:26.887Z,14.32
2022-07-28T05:28:54.739Z,14.48
2022-07-28T05:31:25.339Z,14.70
2022-07-28T05:33:53.840Z,14.80
2022-07-28T05:36:21.642Z,15.09
2022-07-28T05:38:49.620Z,15.43
2022-07-28T05:41:17.443Z,15.54
2022-07-28T05:43:45.608Z,15.74
2022-07-28T05:46:13.463Z,15.96
2022-07-28T05:48:42.695Z,15.91
2022-07-28T05:51:10.535Z,16.28
2022-07-28T05:53:38.663Z,16.59
2022-07-28T05:56:07.355Z,16.75
2022-07-28T05:58:35.269Z,16.74
2022-07-28T06:01:03.911Z,17.09
2022-07-28T06:03:39.759Z,17.32
2022-07-28T06:06:15.699Z,17.54
2022-07-28T06:08:46.642Z,17.54
2022-07-28T06:11:21.755Z,17.51
2022-07-28T06:13:51.560Z,17.63
2022-07-28T06:16:20.839Z,17.86
2022-07-28T06:18:48.946Z,18.38
2022-07-28T06:21:18.328Z,18.54
2022-07-28T06:23:46.436Z,18.67
2022-07-28T06:26:14.211Z,18.95
2022-07-28T06:28:41.922Z,18.73
2022-07-28T06:31:10.144Z,18.95
2022-07-28T06:33:38.856Z,17.99
2022-07-28T06:36:07.514Z,18.76
2022-07-28T06:38:36.624Z,19.20
2022-07-28T06:41:04.537Z,19.36
2022-07-28T06:43:36.834Z,19.66
2022-07-28T06:46:06.869Z,19.79
2022-07-28T06:48:37.517Z,19.87
2022-07-28T06:51:05.982Z,20.54
2022-07-28T06:53:34.695Z,20.24
2022-07-28T06:56:06.024Z,19.55
2022-07-28T06:58:34.347Z,20.58
2022-07-28T07:01:03.206Z,22.39
2022-07-28T07:03:31.098Z,27.34
2022-07-28T07:05:58.973Z,26.80
2022-07-28T07:08:26.892Z,28.79
2022-07-28T07:10:54.857Z,27.89
2022-07-28T07:13:24.165Z,29.32
2022-07-28T07:15:52.151Z,29.13
2022-07-28T07:18:19.985Z,27.42
2022-07-28T07:20:49.009Z,26.43
2022-07-28T07:23:16.920Z,28.24
2022-07-28T07:25:44.667Z,28.64
2022-07-28T07:28:12.541Z,27.30
2022-07-28T07:30:41.786Z,26.99
2022-07-28T07:33:12.060Z,29.34
2022-07-28T07:35:40.508Z,29.56
2022-07-28T07:38:08.384Z,29.72
2022-07-28T07:40:36.588Z,29.13
2022-07-28T07:43:04.960Z,29.67
2022-07-28T07:45:34.347Z,30.86
2022-07-28T07:48:03.595Z,32.60
2022-07-28T07:50:31.492Z,34.64
2022-07-28T07:52:59.488Z,34.49
2022-07-28T07:55:27.947Z,35.63
2022-07-28T07:58:02.416Z,30.66
2022-07-28T08:00:30.896Z,31.09
2022-07-28T08:03:00.326Z,31.89
2022-07-28T08:05:35.674Z,33.23
2022-07-28T08:08:05.139Z,34.09
2022-07-28T08:10:33.423Z,33.06
2022-07-28T08:13:01.278Z,29.63
2022-07-28T08:15:29.088Z,30.62
2022-07-28T08:17:57.023Z,30.16
2022-07-28T08:20:25.016Z,30.13
2022-07-28T08:22:56.063Z,32.24
2022-07-28T08:25:25.232Z,30.38
2022-07-28T08:27:52.975Z,30.06
2022-07-28T08:30:22.316Z,29.40
2022-07-28T08:32:56.529Z,27.26
2022-07-28T08:35:35.162Z,30.64
2022-07-28T08:38:07.079Z,32.25
2022-07-28T08:40:36.501Z,33.26
2022-07-28T08:43:13.235Z,34.45
2022-07-28T08:45:44.489Z,33.51
2022-07-28T08:48:12.983Z,33.19
2022-07-28T08:50:41.692Z,30.90
2022-07-28T08:53:11.801Z,29.30
2022-07-28T08:55:40.673Z,28.30
2022-07-28T08:58:08.722Z,30.49
2022-07-28T09:00:36.860Z,28.18
2022-07-28T09:03:05.439Z,30.88
2022-07-28T09:05:33.967Z,31.30
2022-07-28T09:08:02.822Z,28.64
2022-07-28T09:10:32.157Z,32.98
2022-07-28T09:13:00.036Z,34.46
2022-07-28T09:15:28.132Z,33.70
2022-07-28T09:17:56.648Z,33.62
2022-07-28T09:20:24.941Z,34.61
2022-07-28T09:22:58.248Z,34.41
2022-07-28T09:25:27.310Z,34.24
2022-07-28T09:27:57.361Z,35.86
2022-07-28T09:30:30.886Z,35.81
2022-07-28T09:33:42.529Z,35.05
2022-07-28T09:36:16.791Z,32.35
2022-07-28T09:38:45.807Z,34.06
2022-07-28T09:41:14.644Z,34.02
2022-07-28T09:43:47.766Z,31.06
2022-07-28T09:46:19.580Z,31.54
2022-07-28T09:48:53.983Z,31.56
2022-07-28T09:51:24.774Z,29.93
2022-07-28T09:53:53.458Z,30.14
2022-07-28T09:56:23.404Z,31.28
2022-07-28T09:58:58.102Z,29.01
2022-07-28T10:01:29.225Z,31.82
2022-07-28T10:04:04.765Z,29.72
2022-07-28T10:06:34.467Z,32.38
2022-07-28T10:09:03.997Z,32.92
2022-07-28T10:11:34.375Z,31.73
2022-07-28T10:14:07.959Z,30.12
2022-07-28T10:16:38.195Z,27.55
2022-07-28T10:19:06.834Z,25.56
2022-07-28T10:21:37.328Z,27.40
2022-07-28T10:24:07.713Z,30.55
2022-07-28T10:26:39.752Z,31.22
2022-07-28T10:29:13.529Z,32.25
2022-07-28T10:31:49.534Z,31.00
2022-07-28T10:34:24.473Z,32.09
2022-07-28T10:36:55.345Z,32.27
2022-07-28T10:39:26.244Z,29.66
2022-07-28T10:41:55.155Z,30.39
2022-07-28T10:44:25.431Z,31.83
2022-07-28T10:46:53.761Z,31.53
2022-07-28T10:49:22.215Z,32.07
2022-07-28T10:52:06.689Z,31.85
2022-07-28T10:54:49.902Z,30.68
2022-07-28T10:57:19.198Z,31.12
2022-07-28T11:00:12.240Z,30.54
2022-07-28T11:02:45.752Z,28.21
2022-07-28T11:05:37.665Z,28.89
2022-07-28T11:08:08.910Z,26.96
2022-07-28T11:10:48.771Z,29.41
2022-07-28T11:13:29.052Z,29.95
2022-07-28T11:16:18.408Z,28.66
2022-07-28T11:19:07.556Z,26.77
2022-07-28T11:21:39.638Z,26.49
2022-07-28T11:24:09.011Z,27.39
2022-07-28T11:26:45.721Z,27.66
2022-07-28T11:29:21.451Z,27.84
2022-07-28T11:32:04.907Z,27.87
2022-07-28T11:35:09.144Z,28.73
2022-07-28T11:38:09.224Z,28.41
2022-07-28T11:40:42.161Z,28.53
2022-07-28T11:43:37.746Z,28.05
2022-07-28T11:46:30.604Z,27.31
2022-07-28T11:49:21.171Z,26.95
2022-07-28T11:52:20.823Z,26.92
2022-07-28T11:54:55.259Z,28.05
2022-07-28T11:57:25.904Z,29.20
2022-07-28T12:00:00.082Z,27.22
2022-07-28T12:02:31.532Z,27.03
2022-07-28T12:05:07.271Z,27.60
2022-07-28T12:07:41.774Z,28.31
2022-07-28T12:10:53.914Z,28.93
2022-07-28T12:13:27.843Z,27.92
2022-07-28T12:15:55.784Z,27.00
2022-07-28T12:18:24.764Z,27.39
2022-07-28T12:20:55.715Z,28.40
2022-07-28T12:23:39.352Z,29.11
2022-07-28T12:26:29.345Z,29.21
2022-07-28T12:29:00.207Z,28.85
2022-07-28T12:31:34.300Z,28.94
2022-07-28T12:34:06.298Z,28.58
2022-07-28T12:36:35.478Z,28.60
2022-07-28T12:39:10.874Z,28.86
2022-07-28T12:41:40.884Z,29.25
2022-07-28T12:44:08.925Z,28.39
2022-07-28T12:46:36.897Z,28.79
2022-07-28T12:49:04.924Z,28.77
2022-07-28T12:51:36.725Z,28.29
2022-07-28T12:54:06.503Z,27.51
2022-07-28T12:56:45.898Z,26.99
2022-07-28T12:59:14.633Z,26.92
2022-07-28T13:01:46.844Z,27.49
2022-07-28T13:04:15.276Z,27.47
2022-07-28T13:06:55.036Z,28.04
2022-07-28T13:09:24.031Z,28.58
2022-07-28T13:12:00.932Z,27.04
2022-07-28T13:14:52.176Z,27.97
2022-07-28T13:17:21.412Z,28.25
2022-07-28T13:19:50.263Z,27.69
2022-07-28T13:22:28.641Z,28.11
2022-07-28T13:24:57.938Z,29.03
2022-07-28T13:27:26.059Z,28.87
2022-07-28T13:29:54.144Z,28.73
2022-07-28T13:32:22.665Z,29.18
2022-07-28T13:34:51.833Z,28.54
2022-07-28T13:37:20.216Z,29.65
2022-07-28T13:39:54.147Z,29.30
2022-07-28T13:42:23.567Z,28.18
2022-07-28T13:44:51.782Z,29.20
2022-07-28T13:47:19.701Z,29.09
2022-07-28T13:49:47.815Z,28.56
2022-07-28T13:52:33.175Z,29.04
2022-07-28T13:55:06.236Z,29.75
2022-07-28T13:57:35.798Z,29.81
2022-07-28T14:00:07.922Z,28.19
2022-07-28T14:02:36.718Z,27.00
2022-07-28T14:05:05.623Z,28.38
2022-07-28T14:07:33.645Z,28.82
2022-07-28T14:10:02.053Z,28.90
2022-07-28T14:12:31.344Z,29.15
2022-07-28T14:14:59.755Z,28.91
2022-07-28T14:17:45.682Z,29.07
2022-07-28T14:20:15.238Z,28.70
2022-07-28T14:22:43.793Z,29.33
2022-07-28T14:25:13.477Z,29.85
2022-07-28T14:27:51.059Z,29.27
2022-07-28T14:30:20.233Z,29.17
2022-07-28T14:32:49.670Z,30.19
2022-07-28T14:35:19.313Z,30.22
2022-07-28T14:38:23.550Z,29.60
2022-07-28T14:40:39.498Z,30.28
2022-07-28T14:43:10.240Z,30.69
2022-07-28T14:46:01.368Z,30.28
2022-07-28T14:48:26.326Z,29.85
2022-07-28T14:50:55.515Z,29.44
2022-07-28T14:53:24.123Z,29.18
2022-07-28T14:55:55.770Z,29.06
2022-07-28T14:58:25.746Z,28.27
2022-07-28T15:00:53.784Z,29.36
2022-07-28T15:03:21.639Z,29.25
2022-07-28T15:05:49.570Z,27.66
2022-07-28T15:08:17.396Z,27.52
2022-07-28T15:10:45.356Z,28.98
2022-07-28T15:13:17.063Z,28.63
2022-07-28T15:15:46.789Z,28.41
2022-07-28T15:18:14.701Z,30.28
2022-07-28T15:20:43.312Z,31.13
2022-07-28T15:23:11.747Z,31.01
2022-07-28T15:25:39.609Z,31.00
2022-07-28T15:28:07.965Z,30.54
2022-07-28T15:30:35.829Z,30.58
2022-07-28T15:33:12.247Z,30.22
2022-07-28T15:35:57.999Z,30.02
2022-07-28T15:38:29.084Z,30.63
2022-07-28T15:40:58.789Z,30.41
2022-07-28T15:43:27.054Z,31.08
2022-07-28T15:45:56.327Z,29.02
2022-07-28T15:48:25.698Z,28.26
2022-07-28T15:50:53.502Z,29.38
2022-07-28T15:53:21.389Z,29.64
2022-07-28T15:55:51.566Z,29.91
2022-07-28T15:58:20.286Z,30.33
2022-07-28T16:00:48.312Z,30.99
2022-07-28T16:03:16.307Z,31.68
2022-07-28T16:05:49.569Z,31.70
2022-07-28T16:08:18.116Z,30.78
2022-07-28T16:10:51.477Z,30.67
2022-07-28T16:13:35.801Z,30.37
2022-07-28T16:16:07.341Z,30.53
2022-07-28T16:18:37.385Z,30.41
2022-07-28T16:21:07.697Z,30.55
2022-07-28T16:23:35.909Z,30.29
2022-07-28T16:26:07.517Z,29.35
2022-07-28T16:28:35.426Z,29.36
2022-07-28T16:31:03.542Z,29.08
2022-07-28T16:33:34.011Z,29.54
2022-07-28T16:36:04.173Z,28.95
2022-07-28T16:38:33.352Z,29.09
2022-07-28T16:41:01.240Z,29.66
2022-07-28T16:43:29.340Z,29.23
2022-07-28T16:45:57.314Z,28.94
2022-07-28T16:48:25.282Z,28.66
2022-07-28T16:50:53.146Z,27.73
2022-07-28T16:53:21.099Z,27.72
2022-07-28T16:55:50.334Z,28.42
2022-07-28T16:58:19.946Z,28.89
2022-07-28T17:00:47.908Z,28.59
2022-07-28T17:03:16.958Z,28.97
2022-07-28T17:05:44.845Z,28.56
2022-07-28T17:08:13.131Z,28.40
2022-07-28T17:10:40.908Z,28.49
2022-07-28T17:13:12.041Z,28.55
2022-07-28T17:15:41.248Z,28.24
2022-07-28T17:18:09.083Z,27.86
2022-07-28T17:20:41.871Z,28.26
2022-07-28T17:23:09.944Z,28.41
2022-07-28T17:28:27.309Z,27.76
2022-07-28T17:30:55.279Z,27.56
2022-07-28T17:33:25.245Z,27.00
2022-07-28T17:35:56.103Z,27.00
2022-07-28T17:38:32.523Z,26.95
2022-07-28T17:41:03.880Z,26.86
2022-07-28T17:43:33.535Z,26.96
2022-07-28T17:46:02.992Z,26.72
2022-07-28T17:48:38.304Z,26.36
2022-07-28T17:51:06.432Z,26.12
2022-07-28T17:53:39.282Z,26.25
2022-07-28T17:56:08.592Z,26.31
2022-07-28T17:58:39.265Z,26.49
2022-07-28T18:01:12.428Z,26.29
2022-07-28T18:03:56.829Z,25.78
2022-07-28T18:06:33.915Z,25.35
2022-07-28T18:09:06.392Z,25.26
2022-07-28T18:11:56.525Z,24.93
2022-07-28T18:14:27.245Z,24.70
2022-07-28T18:16:55.269Z,24.68
2022-07-28T18:19:23.046Z,24.59
2022-07-28T18:21:50.873Z,24.24
2022-07-28T18:24:21.697Z,24.31
2022-07-28T18:26:49.918Z,24.03
2022-07-28T18:29:17.755Z,23.89
2022-07-28T18:31:48.487Z,23.80
2022-07-28T18:34:17.150Z,23.61
2022-07-28T18:36:45.901Z,23.42
2022-07-28T18:39:13.914Z,23.29
2022-07-28T18:41:47.240Z,23.23
2022-07-28T18:44:17.327Z,23.13
2022-07-28T18:46:47.547Z,22.97
2022-07-28T18:49:15.727Z,22.75
2022-07-28T18:51:44.249Z,22.64
2022-07-28T18:54:16.481Z,22.59
2022-07-28T18:56:48.536Z,22.34
2022-07-28T18:59:16.370Z,22.34
2022-07-28T19:01:44.400Z,22.33
2022-07-28T19:04:13.846Z,22.25
2022-07-28T19:06:42.574Z,22.12
2022-07-28T19:09:10.530Z,21.99
2022-07-28T19:11:43.756Z,21.87
2022-07-28T19:14:14.042Z,21.88
2022-07-28T19:16:42.037Z,21.89
2022-07-28T19:19:09.903Z,21.85
2022-07-28T19:21:43.268Z,21.77
2022-07-28T19:24:12.383Z,21.71
2022-07-28T19:26:40.359Z,21.71
2022-07-28T19:29:08.196Z,21.58
2022-07-28T19:31:37.608Z,21.58
2022-07-28T19:34:06.615Z,21.54
2022-07-28T19:36:34.463Z,21.48
2022-07-28T19:39:03.841Z,21.38
2022-07-28T19:41:31.908Z,21.38
2022-07-28T19:43:59.682Z,21.27
2022-07-28T19:46:27.596Z,21.19
2022-07-28T19:48:55.859Z,21.07
2022-07-28T19:51:23.648Z,21.02
2022-07-28T19:53:51.841Z,20.91
2022-07-28T19:56:21.664Z,20.95
2022-07-28T19:58:56.680Z,20.98
2022-07-28T20:01:24.492Z,20.90
2022-07-28T20:04:01.020Z,20.88
2022-07-28T20:06:32.519Z,20.86
2022-07-28T20:09:00.509Z,20.83
2022-07-28T20:11:29.776Z,20.83
2022-07-28T20:13:57.566Z,20.85
2022-07-28T20:16:25.510Z,20.86
2022-07-28T20:18:53.294Z,20.81
2022-07-28T20:21:24.034Z,20.77
2022-07-28T20:23:53.653Z,20.82
2022-07-28T20:26:23.798Z,20.65
2022-07-28T20:28:53.546Z,20.68
2022-07-28T20:31:21.971Z,20.72
2022-07-28T20:33:50.360Z,20.62
2022-07-28T20:36:18.351Z,20.40
2022-07-28T20:38:46.236Z,20.52
2022-07-28T20:41:14.064Z,20.40
2022-07-28T20:43:41.925Z,20.43
2022-07-28T20:46:10.998Z,20.41
2022-07-28T20:48:38.985Z,20.21
2022-07-28T20:51:06.907Z,20.23
2022-07-28T20:53:37.419Z,20.12
2022-07-28T20:56:05.887Z,19.95
2022-07-28T20:58:33.909Z,19.94
2022-07-28T21:01:02.576Z,19.89
2022-07-28T21:03:31.781Z,19.73
2022-07-28T21:05:59.632Z,19.57
2022-07-28T21:08:27.840Z,19.66
2022-07-28T21:10:55.778Z,19.49
2022-07-28T21:13:23.733Z,19.43
2022-07-28T21:15:51.714Z,19.32
2022-07-28T21:18:19.554Z,19.36
2022-07-28T21:20:48.718Z,19.20
2022-07-28T21:23:18.209Z,19.15
2022-07-28T21:25:46.548Z,18.83
2022-07-28T21:28:31.955Z,18.95
2022-07-28T21:31:01.438Z,18.79
2022-07-28T21:33:30.196Z,18.58
2022-07-28T21:36:00.716Z,18.54
2022-07-28T21:38:28.864Z,18.41
2022-07-28T21:40:57.134Z,18.47
2022-07-28T21:43:25.047Z,18.29
2022-07-28T21:45:52.898Z,18.17
2022-07-28T21:48:23.784Z,18.05
2022-07-28T21:50:52.073Z,17.87
2022-07-28T21:53:21.968Z,17.73
2022-07-28T21:55:49.808Z,17.53
2022-07-28T21:58:17.623Z,17.62
2022-07-28T22:00:45.600Z,17.52
2022-07-28T22:03:13.377Z,17.41
2022-07-28T22:05:41.644Z,17.26
2022-07-28T22:08:09.650Z,17.26
2022-07-28T22:10:39.147Z,17.17
2022-07-28T22:13:07.113Z,17.15
2022-07-28T22:15:34.946Z,16.98
2022-07-28T22:18:02.764Z,16.88
2022-07-28T22:20:30.871Z,16.93
2022-07-28T22:22:58.665Z,16.94
2022-07-28T22:25:26.428Z,16.94
2022-07-28T22:27:55.767Z,16.85
2022-07-28T22:30:23.847Z,16.86
2022-07-28T22:32:52.259Z,16.59
2022-07-28T22:35:20.873Z,16.59
2022-07-28T22:37:49.465Z,16.70
2022-07-28T22:40:17.439Z,16.81
2022-07-28T22:42:45.583Z,16.86
2022-07-28T22:45:14.825Z,16.81
2022-07-28T22:48:02.666Z,16.78
2022-07-28T22:50:30.743Z,16.74
2022-07-28T22:52:58.724Z,16.81
2022-07-28T22:55:26.790Z,16.81
2022-07-28T22:57:54.691Z,16.57
2022-07-28T23:00:23.969Z,16.37
2022-07-28T23:02:52.105Z,16.21
2022-07-28T23:05:20.055Z,16.04
2022-07-28T23:07:52.873Z,16.08
2022-07-28T23:10:25.500Z,16.21
2022-07-28T23:12:57.334Z,16.30
2022-07-28T23:15:40.411Z,16.28
2022-07-28T23:18:10.045Z,16.16
2022-07-28T23:20:37.877Z,16.29
2022-07-28T23:23:05.705Z,16.39
2022-07-28T23:25:33.651Z,16.37
2022-07-28T23:28:01.599Z,16.44
2022-07-28T23:30:30.676Z,16.32
2022-07-28T23:32:59.334Z,16.44
2022-07-28T23:35:29.629Z,16.39
2022-07-28T23:37:57.673Z,15.97
2022-07-28T23:40:25.532Z,15.88
2022-07-28T23:42:53.331Z,15.98
2022-07-28T23:45:21.071Z,15.89
2022-07-28T23:47:53.872Z,15.73
2022-07-28T23:50:25.033Z,15.80
2022-07-28T23:52:52.768Z,15.80
2022-07-28T23:55:20.583Z,16.09
2022-07-28T23:57:48.816Z,16.20
